Time;durP1;ratioP1;P1;durP2;ratioP2;P2;SDS_P1;SDS_P2;PMS_P1;PMS_P2;Temp;Humidity;BMP_temperature;BMP_pressure;BME280_temperature;BME280_humidity;BME280_pressure;Samples;Min_cycle;Max_cycle;Signal;HPM_P1;HPM_P2
2021/12/06 00:01:35;;;;;;;27.77;13.40;;;5.50;59.10;;;3.74;64.59;100775.88;8269599;28;20161;-89
2021/12/06 00:05:57;;;;;;;21.52;12.63;;;5.50;59.10;;;3.56;64.53;100753.94;8257506;28;20117;-90
2021/12/06 00:10:19;;;;;;;24.15;13.57;;;5.40;59.00;;;3.62;64.75;100768.44;8251633;28;20140;-91
2021/12/06 00:14:42;;;;;;;23.38;13.32;;;5.40;59.00;;;3.61;64.73;100764.16;8247367;28;20057;-90
2021/12/06 00:19:06;;;;;;;25.35;13.15;;;5.20;59.00;;;3.63;64.62;100775.31;8246380;28;20475;-90
2021/12/06 00:23:27;;;;;;;25.25;13.45;;;5.40;59.00;;;3.53;64.79;100770.38;8264896;28;20140;-91
2021/12/06 00:27:49;;;;;;;25.05;13.20;;;5.40;59.00;;;3.58;64.91;100790.06;8240909;28;20129;-90
2021/12/06 00:32:11;;;;;;;26.52;13.15;;;5.30;59.10;;;3.53;65.12;100798.75;8254032;28;20128;-90
2021/12/06 00:36:37;;;;;;;23.90;13.20;;;5.30;59.00;;;3.53;64.84;100801.34;8267099;28;20133;-90
2021/12/06 00:41:00;;;;;;;22.63;12.77;;;5.30;59.10;;;3.58;65.05;100802.97;8268597;28;20137;-90
2021/12/06 00:45:22;;;;;;;22.77;12.15;;;5.30;59.20;;;3.57;64.78;100815.03;8267535;28;20160;-90
2021/12/06 00:49:46;;;;;;;17.73;10.38;;;5.30;59.20;;;3.60;64.96;100814.13;8264806;28;20129;-90
2021/12/06 00:54:13;;;;;;;26.05;13.45;;;5.30;59.20;;;3.60;64.88;100814.97;8261412;28;20042;-90
2021/12/06 00:58:35;;;;;;;27.00;14.15;;;5.30;59.20;;;3.55;64.96;100815.06;8265774;28;20126;-91
2021/12/06 01:02:58;;;;;;;23.73;12.50;;;5.30;59.20;;;3.56;65.05;100813.34;8259127;28;20113;-90
2021/12/06 01:07:19;;;;;;;21.55;11.77;;;5.30;59.20;;;3.55;64.67;100807.31;8226607;28;20488;-90
2021/12/06 01:11:41;;;;;;;25.08;13.30;;;5.30;59.20;;;3.52;64.83;100815.16;8266360;28;20130;-90
2021/12/06 01:16:06;;;;;;;20.63;12.13;;;5.30;59.10;;;3.64;65.12;100839.81;8262978;28;20057;-90
2021/12/06 01:20:39;;;;;;;18.53;11.03;;;5.30;59.10;;;3.58;65.17;100834.81;8266549;28;20125;-89
2021/12/06 01:25:06;;;;;;;21.40;12.13;;;5.30;59.10;;;3.66;64.78;100853.53;8246224;28;20129;-90
2021/12/06 01:42:57;;;;;;;19.52;12.35;;;5.40;59.10;;;3.64;64.80;100869.94;8270543;23;20064;-80
2021/12/06 01:47:29;;;;;;;18.75;11.15;;;5.30;59.10;;;3.67;64.85;100886.25;8284958;28;20047;-79
2021/12/06 01:51:55;;;;;;;20.38;12.07;;;5.30;59.30;;;3.55;64.73;100876.19;8291601;28;20045;-79
2021/12/06 01:56:17;;;;;;;24.52;14.25;;;5.20;58.80;;;3.55;64.62;100881.34;8249871;28;20034;-79
2021/12/06 02:00:52;;;;;;;23.15;14.60;;;5.30;58.90;;;3.52;64.96;100896.94;8261813;28;20038;-79
2021/12/06 02:05:21;;;;;;;19.48;11.82;;;5.30;58.90;;;3.50;64.74;100896.09;8253771;28;20045;-79
2021/12/06 02:09:46;;;;;;;21.15;12.18;;;5.30;58.80;;;3.44;65.08;100899.69;8270281;28;20129;-79
2021/12/06 02:19:00;;;;;;;21.70;12.73;;;5.10;59.00;;;3.43;64.82;100912.59;8259507;28;20448;-80
2021/12/06 02:23:22;;;;;;;18.55;11.65;;;5.20;58.80;;;3.38;65.03;100899.81;8269344;28;20126;-80
2021/12/06 02:27:47;;;;;;;17.90;10.85;;;5.10;58.80;;;3.46;64.91;100912.56;8263967;28;20054;-80
2021/12/06 02:32:12;;;;;;;;;;;5.20;58.90;;;3.47;64.49;100912.50;8269309;28;20546;-78
2021/12/06 02:36:34;;;;;;;20.25;11.27;;;5.20;59.00;;;3.36;64.91;100898.16;8234344;28;20258;-80
2021/12/06 02:40:56;;;;;;;25.60;15.60;;;5.20;58.80;;;3.35;64.63;100910.22;8254759;28;20052;-79
2021/12/06 02:45:25;;;;;;;21.80;12.48;;;5.10;58.90;;;3.33;64.92;100914.56;8263803;28;20517;-80
2021/12/06 02:49:48;;;;;;;21.40;12.25;;;5.00;58.80;;;3.35;65.00;100914.50;8253993;28;20038;-78
2021/12/06 02:54:11;;;;;;;20.40;11.40;;;5.10;58.80;;;3.36;64.84;100911.91;8266103;28;20034;-80
2021/12/06 03:02:58;;;;;;;20.05;11.90;;;5.10;58.80;;;3.38;64.92;100919.63;8270415;28;20040;-80
2021/12/06 03:07:24;;;;;;;21.08;12.25;;;5.10;58.80;;;3.44;64.73;100922.91;8260423;28;20050;-79
2021/12/06 03:11:55;;;;;;;20.50;11.77;;;5.10;58.80;;;3.42;64.98;100926.41;8253063;28;20046;-80
2021/12/06 03:16:18;;;;;;;18.70;11.57;;;5.10;58.70;;;3.44;64.84;100943.56;8262804;28;20039;-79
2021/12/06 03:20:39;;;;;;;18.17;11.93;;;5.10;58.60;;;3.41;64.85;100935.03;8265849;28;20121;-80
2021/12/06 03:25:11;;;;;;;22.83;12.25;;;5.10;58.60;;;3.37;64.83;100939.41;8246185;28;20046;-79
2021/12/06 03:29:34;;;;;;;19.48;11.73;;;5.10;58.60;;;3.38;64.68;100950.59;8252359;28;20049;-80
2021/12/06 03:33:57;;;;;;;17.83;10.57;;;5.10;58.60;;;3.32;64.67;100946.41;8265879;28;20045;-80
2021/12/06 03:38:20;;;;;;;19.92;12.13;;;5.10;58.60;;;3.41;64.99;100966.88;8265550;28;20040;-79
2021/12/06 03:42:42;;;;;;;19.67;12.15;;;5.10;58.60;;;3.46;64.65;100984.84;8253345;28;20042;-80
2021/12/06 03:47:22;;;;;;;21.45;12.20;;;5.10;58.70;;;3.36;64.87;100979.03;8261314;28;20509;-80
2021/12/06 03:51:46;;;;;;;19.55;10.98;;;5.20;58.70;;;3.37;64.91;100982.44;8271234;28;20052;-80
2021/12/06 03:56:09;;;;;;;19.60;11.18;;;5.10;58.60;;;3.37;64.30;100992.75;8259757;28;20356;-81
2021/12/06 04:00:32;;;;;;;16.88;10.68;;;5.10;58.60;;;3.36;64.99;100989.34;8252862;28;20035;-80
2021/12/06 04:04:57;;;;;;;16.75;10.60;;;5.10;58.60;;;3.40;64.65;100995.28;8258284;28;20056;-81
2021/12/06 04:09:23;;;;;;;20.00;10.57;;;5.10;58.70;;;3.35;64.52;100997.97;8264294;28;20050;-81
2021/12/06 04:13:46;;;;;;;17.60;11.07;;;5.20;58.70;;;3.47;65.08;101031.25;8267994;28;20544;-82
2021/12/06 04:18:08;;;;;;;16.77;9.55;;;5.20;58.70;;;3.41;64.79;101018.50;8262818;28;20126;-81
2021/12/06 04:22:31;;;;;;;18.27;10.68;;;5.10;58.60;;;3.37;64.74;101010.84;8253084;28;20048;-82
2021/12/06 04:26:53;;;;;;;15.60;10.13;;;5.10;58.60;;;3.41;64.99;101018.50;8244149;28;20044;-81
2021/12/06 04:31:16;;;;;;;19.85;10.30;;;5.20;58.60;;;3.42;64.63;101025.34;8280944;28;20144;-82
2021/12/06 04:35:42;;;;;;;19.77;11.40;;;5.20;58.60;;;3.43;64.94;101024.47;8263521;28;20054;-80
2021/12/06 04:40:06;;;;;;;;;;;5.20;58.60;;;3.44;64.85;101033.91;8261916;28;20403;-81
2021/12/06 04:44:27;;;;;;;14.13;8.80;;;5.20;58.70;;;3.42;64.96;101040.81;8250774;28;19913;-81
2021/12/06 04:48:50;;;;;;;17.95;10.40;;;5.20;58.50;;;3.41;64.94;101038.28;8259165;28;20129;-81
2021/12/06 04:53:23;;;;;;;17.55;10.70;;;5.20;58.50;;;3.41;64.62;101049.47;8271334;28;20640;-82
2021/12/06 04:57:47;;;;;;;22.73;10.65;;;5.10;58.50;;;3.39;64.60;101048.63;8244370;28;20044;-81
2021/12/06 05:02:20;;;;;;;19.83;10.95;;;5.20;58.50;;;3.38;64.90;101053.84;8263652;28;20046;-82
2021/12/06 05:06:47;;;;;;;19.42;11.70;;;5.10;58.50;;;3.37;64.71;101057.28;8255086;28;20132;-82
2021/12/06 05:11:09;;;;;;;19.30;11.35;;;5.20;58.50;;;3.36;64.66;101069.34;8262625;28;20040;-82
2021/12/06 05:15:30;;;;;;;18.88;11.38;;;5.10;58.50;;;3.34;64.67;101063.38;8269466;28;20046;-81
2021/12/06 05:19:52;;;;;;;19.20;10.98;;;5.10;58.60;;;3.39;64.86;101071.88;8242614;28;20124;-81
2021/12/06 05:24:17;;;;;;;20.33;11.45;;;5.10;58.60;;;3.36;64.89;101065.94;8251359;28;20060;-82
2021/12/06 05:28:43;;;;;;;19.38;10.82;;;5.10;58.60;;;3.38;64.75;101077.09;8250734;28;20056;-82
2021/12/06 05:33:07;;;;;;;19.33;10.25;;;5.00;58.50;;;3.35;64.71;101084.84;8241167;28;20038;-82
2021/12/06 05:37:30;;;;;;;19.52;11.93;;;5.10;58.50;;;3.33;64.81;101079.75;8250648;28;20042;-81
2021/12/06 05:41:52;;;;;;;19.02;10.10;;;5.10;58.60;;;3.34;64.80;101086.59;8260242;28;20044;-83
2021/12/06 05:46:14;;;;;;;18.15;10.38;;;5.10;58.50;;;3.31;64.83;101084.06;8256460;28;20129;-82
2021/12/06 05:50:36;;;;;;;17.50;10.88;;;5.10;58.50;;;3.38;64.83;101100.31;8243431;28;20133;-82
2021/12/06 05:54:57;;;;;;;19.15;10.93;;;5.10;58.60;;;3.31;65.06;101100.41;8255204;28;20050;-84
2021/12/06 05:59:20;;;;;;;20.45;11.00;;;5.10;58.60;;;3.40;64.92;101125.19;8253513;28;20130;-82
2021/12/06 06:03:42;;;;;;;18.40;10.80;;;5.10;58.50;;;3.35;64.76;101114.13;8256348;28;20041;-83
2021/12/06 06:08:06;;;;;;;20.20;11.68;;;5.10;58.50;;;3.40;64.85;101120.03;8256319;28;20050;-84
2021/12/06 06:12:28;;;;;;;18.95;11.40;;;5.10;58.50;;;3.33;64.89;101110.72;8258545;28;20072;-83
2021/12/06 06:16:53;;;;;;;18.45;10.35;;;5.10;58.50;;;3.35;64.75;101126.16;8258013;28;20049;-82
2021/12/06 06:21:15;;;;;;;;;;;5.10;58.50;;;3.30;64.76;101121.09;8254732;28;20060;-82
2021/12/06 06:25:38;;;;;;;15.10;9.13;;;5.10;58.60;;;3.35;64.63;101139.94;8221477;28;19914;-83
2021/12/06 06:30:00;;;;;;;15.25;9.18;;;5.00;58.50;;;3.29;64.94;101138.31;8223908;28;20049;-82
2021/12/06 06:34:22;;;;;;;14.48;8.95;;;5.10;58.60;;;3.35;64.74;101152.84;8208444;28;20042;-81
2021/12/06 06:38:47;;;;;;;14.52;9.13;;;5.10;58.60;;;3.33;64.91;101150.28;8228023;28;20035;-82
2021/12/06 06:43:10;;;;;;;20.90;9.52;;;5.10;58.60;;;3.39;65.09;101161.38;8210286;28;20605;-81
2021/12/06 06:47:32;;;;;;;19.23;10.55;;;5.10;58.60;;;3.39;64.97;101169.97;8224354;28;20039;-81
2021/12/06 06:51:53;;;;;;;15.63;9.45;;;5.20;58.70;;;3.39;64.86;101174.28;8239974;28;20039;-81
2021/12/06 06:56:17;;;;;;;14.90;9.18;;;5.10;58.70;;;3.36;65.00;101159.69;8236430;28;20055;-85
2021/12/06 07:00:38;;;;;;;15.93;9.65;;;5.20;58.70;;;3.40;64.81;101169.06;8245247;28;20117;-77
2021/12/06 07:05:00;;;;;;;19.67;10.90;;;5.20;58.70;;;3.42;64.89;101174.22;8248216;28;20191;-81
2021/12/06 07:09:22;;;;;;;18.38;10.40;;;5.10;58.60;;;3.32;64.86;101158.91;8218911;28;20135;-81
2021/12/06 07:13:46;;;;;;;16.65;9.57;;;5.20;58.60;;;3.40;64.93;101187.13;8240837;28;20129;-84
2021/12/06 07:18:08;;;;;;;18.55;10.57;;;5.10;58.60;;;3.40;64.93;101186.28;8239773;28;20111;-81
2021/12/06 07:22:30;;;;;;;18.13;10.02;;;5.20;58.60;;;3.42;64.81;101185.38;8227829;28;20122;-82
2021/12/06 07:26:52;;;;;;;15.90;10.05;;;5.10;58.60;;;3.43;64.94;101194.84;8239161;28;20467;-82
2021/12/06 07:31:14;;;;;;;19.23;10.32;;;5.20;58.60;;;3.40;64.91;101184.56;8232512;28;20122;-83
2021/12/06 07:35:39;;;;;;;13.13;8.27;;;5.20;58.60;;;3.48;64.81;101190.47;8228267;28;20042;-84
2021/12/06 07:40:04;;;;;;;17.03;9.53;;;5.20;58.70;;;3.38;65.07;101181.19;8221162;28;20043;-79
2021/12/06 07:44:26;;;;;;;14.27;9.20;;;5.10;58.70;;;3.50;64.81;101196.44;8285418;23;20552;-81
2021/12/06 07:48:52;;;;;;;15.57;9.00;;;5.20;58.70;;;3.49;65.11;101196.47;8295222;28;20130;-83
2021/12/06 07:53:14;;;;;;;15.52;7.97;;;5.30;58.80;;;3.51;65.05;101202.44;8275459;28;20056;-81
2021/12/06 07:57:35;;;;;;;16.25;9.30;;;5.30;58.80;;;3.50;65.11;101193.00;8242635;28;20038;-82
2021/12/06 08:01:57;;;;;;;17.05;9.88;;;5.30;58.80;;;3.58;64.65;101211.78;8238540;28;20579;-82
2021/12/06 08:06:19;;;;;;;18.25;10.38;;;5.30;59.10;;;3.50;64.98;101198.16;8284944;28;20046;-83
2021/12/06 08:10:45;;;;;;;15.38;9.27;;;5.30;58.70;;;3.57;65.07;101219.56;8273283;28;20121;-82
2021/12/06 08:15:08;;;;;;;14.05;9.45;;;5.30;58.70;;;3.52;64.69;101206.75;8252528;28;20046;-80
2021/12/06 08:19:30;;;;;;;15.43;9.70;;;5.30;58.80;;;3.50;64.64;101204.16;8253154;28;20067;-81
2021/12/06 08:23:55;;;;;;;16.90;9.52;;;5.20;58.80;;;3.57;65.13;101210.09;8276333;28;20130;-83
2021/12/06 08:28:19;;;;;;;17.02;9.18;;;5.40;58.90;;;3.57;64.98;101217.00;8262386;28;20121;-84
2021/12/06 08:32:40;;;;;;;16.75;9.98;;;5.40;58.90;;;3.57;65.22;101215.25;8256113;28;20117;-82
2021/12/06 08:37:02;;;;;;;14.98;9.65;;;5.40;58.90;;;3.64;65.29;101223.72;8252458;28;20046;-81
2021/12/06 08:41:28;;;;;;;17.95;9.30;;;5.40;58.90;;;3.66;64.97;101225.41;8256314;28;20056;-82
2021/12/06 08:45:53;;;;;;;15.90;9.60;;;5.40;58.90;;;3.65;65.22;101233.19;8269697;28;20132;-82
2021/12/06 08:50:19;;;;;;;18.40;9.30;;;5.50;58.90;;;3.71;65.54;101230.50;8262122;28;20056;-83
2021/12/06 08:54:42;;;;;;;17.75;8.95;;;5.50;59.20;;;3.65;65.08;101218.53;8263687;28;20045;-81
2021/12/06 08:59:06;;;;;;;16.38;8.93;;;5.50;58.90;;;3.72;65.07;101235.59;8252252;28;20129;-80
2021/12/06 09:03:30;;;;;;;13.15;9.25;;;5.60;58.90;;;3.82;65.36;101251.78;8270966;28;20471;-81
2021/12/06 09:07:52;;;;;;;14.05;8.52;;;5.60;58.90;;;3.76;65.02;101242.44;8242781;28;20133;-84
2021/12/06 09:12:24;;;;;;;17.27;9.25;;;5.60;58.90;;;3.76;65.30;101246.75;8256473;28;20132;-82
2021/12/06 09:16:47;;;;;;;17.00;9.32;;;5.60;59.00;;;3.82;65.06;101254.38;8271427;28;20129;-80
2021/12/06 09:21:17;;;;;;;14.75;9.13;;;5.60;59.00;;;3.88;65.04;101261.16;8256153;28;20117;-80
2021/12/06 09:25:42;;;;;;;13.95;8.50;;;5.60;59.00;;;3.86;65.14;101252.59;8265657;28;20562;-84
2021/12/06 09:30:09;;;;;;;16.40;9.40;;;5.70;59.00;;;3.93;65.25;101267.94;8254073;28;20121;-85
2021/12/06 09:34:31;;;;;;;14.40;8.98;;;5.70;59.00;;;3.97;65.04;101261.84;8261954;28;20046;-82
2021/12/06 09:38:54;;;;;;;17.38;9.23;;;5.60;59.00;;;3.91;65.53;101251.59;8242199;28;20121;-81
2021/12/06 09:43:17;;;;;;;14.40;8.88;;;5.80;59.00;;;3.92;65.02;101250.75;8250474;28;20129;-84
2021/12/06 09:47:39;;;;;;;15.07;8.70;;;5.80;59.00;;;3.98;65.39;101266.13;8255535;28;20060;-83
2021/12/06 09:52:06;;;;;;;13.35;8.60;;;5.80;59.10;;;4.01;65.35;101259.19;8263370;28;20125;-81
2021/12/06 09:56:33;;;;;;;13.02;8.48;;;5.80;59.00;;;4.02;65.13;101248.81;8255600;28;20431;-87
2021/12/06 10:01:00;;;;;;;14.60;8.38;;;5.90;59.10;;;4.09;65.10;101265.06;8240035;28;20578;-82
2021/12/06 10:05:29;;;;;;;11.10;7.50;;;5.90;59.00;;;4.08;65.35;101258.19;8246310;28;20416;-83
2021/12/06 10:09:53;;;;;;;12.55;7.93;;;5.90;59.10;;;4.13;65.00;101261.53;8246469;28;20124;-84
2021/12/06 10:14:15;;;;;;;12.73;7.80;;;5.90;59.10;;;4.13;65.41;101252.06;8261474;28;20129;-82
2021/12/06 10:18:39;;;;;;;12.50;7.85;;;6.00;59.10;;;4.20;65.40;101268.28;8263043;28;20153;-81
2021/12/06 10:23:01;;;;;;;12.65;6.95;;;6.00;59.10;;;4.26;65.21;101264.72;8261606;28;20125;-84
2021/12/06 10:27:24;;;;;;;12.27;7.75;;;6.00;59.10;;;4.22;65.26;101261.38;8259032;28;20050;-84
2021/12/06 10:31:52;;;;;;;12.75;7.75;;;6.00;59.10;;;4.23;65.43;101257.88;8252853;28;20034;-83
2021/12/06 10:36:18;;;;;;;11.27;6.50;;;6.10;59.10;;;4.21;65.64;101236.38;8269091;28;20060;-84
2021/12/06 10:40:41;;;;;;;13.95;8.63;;;6.10;59.10;;;4.28;65.09;101256.06;8254533;28;20129;-83
2021/12/06 10:45:21;;;;;;;9.20;6.43;;;6.10;59.00;;;4.28;65.31;101256.06;8263394;28;20121;-83
2021/12/06 10:49:47;;;;;;;14.77;8.73;;;6.10;59.00;;;4.28;65.07;101239.69;8233175;28;20125;-82
2021/12/06 10:54:30;;;;;;;9.85;6.95;;;6.10;59.10;;;4.26;65.10;101234.56;8263171;28;20125;-85
2021/12/06 10:58:55;;;;;;;10.38;7.15;;;6.10;58.90;;;4.26;65.05;101231.97;8262552;28;20126;-83
2021/12/06 11:03:29;;;;;;;9.88;6.03;;;6.10;59.00;;;4.27;65.54;101233.69;8242413;28;20120;-84
2021/12/06 11:08:16;;;;;;;10.27;6.70;;;6.10;59.00;;;4.37;65.07;101236.91;8250107;28;20130;-85
2021/12/06 11:12:37;;;;;;;13.10;6.05;;;6.10;59.00;;;4.26;65.27;101216.47;8272273;28;20494;-83
2021/12/06 11:17:08;;;;;;;10.05;6.05;;;6.10;58.90;;;4.30;65.12;101220.69;8267556;28;20113;-81
2021/12/06 11:21:35;;;;;;;8.70;5.88;;;6.10;58.90;;;4.40;65.50;101244.59;8255297;28;20120;-80
2021/12/06 11:26:04;;;;;;;9.20;6.55;;;6.20;59.00;;;4.34;65.47;101224.06;8276139;28;20132;-83
2021/12/06 11:30:27;;;;;;;9.20;6.13;;;6.10;58.90;;;4.33;65.08;101209.44;8262374;28;20630;-84
2021/12/06 11:35:06;;;;;;;8.32;5.82;;;6.10;58.90;;;4.26;65.32;101184.59;8263485;28;20068;-85
2021/12/06 11:39:28;;;;;;;10.27;6.25;;;6.20;59.00;;;4.41;65.02;101208.38;8260193;28;20583;-86
2021/12/06 11:43:50;;;;;;;8.10;5.10;;;6.20;58.90;;;4.35;65.46;101190.44;8256652;28;20118;-85
2021/12/06 11:48:35;;;;;;;9.25;5.93;;;6.20;58.90;;;4.37;65.16;101198.97;8263961;28;20471;-85
2021/12/06 11:53:07;;;;;;;7.90;5.32;;;6.20;58.80;;;4.46;65.27;101197.09;8259370;28;20137;-86
2021/12/06 11:57:43;;;;;;;7.90;5.03;;;6.20;58.80;;;4.48;65.46;101218.59;8265497;28;20141;-85
2021/12/06 12:02:05;;;;;;;7.63;5.55;;;6.20;58.70;;;4.46;65.15;101210.03;8253235;28;20128;-85
2021/12/06 12:06:38;;;;;;;9.35;5.78;;;6.20;58.70;;;4.40;65.20;101193.75;8278999;28;20156;-85
2021/12/06 12:11:03;;;;;;;7.97;4.93;;;6.20;58.70;;;4.48;65.27;101208.25;8258366;28;20125;-83
2021/12/06 12:15:25;;;;;;;8.13;5.38;;;6.20;58.80;;;4.49;65.39;101208.22;8274847;28;20133;-82
2021/12/06 12:19:49;;;;;;;8.32;5.25;;;6.20;58.80;;;4.48;65.04;101206.50;8270301;28;20117;-86
2021/12/06 12:24:11;;;;;;;7.97;5.73;;;6.20;59.10;;;4.46;64.89;101208.28;8259560;28;20036;-84
2021/12/06 12:28:49;;;;;;;9.93;6.10;;;6.30;58.90;;;4.55;65.30;101209.81;8265332;28;20128;-85
2021/12/06 12:33:12;;;;;;;8.70;5.63;;;6.20;58.90;;;4.54;64.92;101205.53;8266118;28;20586;-87
2021/12/06 12:37:38;;;;;;;8.25;5.70;;;6.30;58.90;;;4.58;65.03;101222.66;8260951;28;20048;-82
2021/12/06 12:42:04;;;;;;;8.63;6.00;;;6.30;58.80;;;4.55;65.09;101228.75;8252860;28;20125;-84
2021/12/06 12:46:35;;;;;;;8.77;6.05;;;6.30;58.80;;;4.57;65.04;101236.50;8262832;28;20132;-84
2021/12/06 12:51:10;;;;;;;10.20;6.25;;;6.30;58.90;;;4.57;64.74;101237.34;8249454;28;20121;-87
2021/12/06 12:55:49;;;;;;;14.90;7.90;;;6.30;58.80;;;4.58;64.99;101226.09;8258484;28;20348;-84
2021/12/06 13:00:27;;;;;;;11.48;7.15;;;6.30;58.90;;;4.54;64.99;101219.31;8243110;28;20125;-83
2021/12/06 13:04:57;;;;;;;8.77;6.05;;;6.30;58.90;;;4.59;65.46;101235.59;8257927;28;20121;-87
2021/12/06 13:09:19;;;;;;;8.13;5.43;;;6.30;58.90;;;4.63;64.92;101231.19;8278918;28;20137;-84
2021/12/06 13:13:49;;;;;;;9.05;5.55;;;6.30;58.90;;;4.63;65.07;101234.63;8248626;28;20048;-86
2021/12/06 13:18:58;;;;;;;9.45;6.03;;;6.30;58.80;;;4.57;65.15;101220.97;8263376;28;20567;-83
2021/12/06 13:23:25;;;;;;;20.17;6.53;;;6.30;58.80;;;4.63;65.11;101226.00;8258282;28;20109;-85
2021/12/06 13:28:07;;;;;;;8.18;5.18;;;6.40;58.80;;;4.57;64.93;101220.97;8261201;28;20133;-84
2021/12/06 13:32:46;;;;;;;8.48;5.47;;;6.40;58.90;;;4.53;65.18;101203.81;8259632;28;20133;-86
2021/12/06 13:37:07;;;;;;;7.60;5.00;;;6.40;58.90;;;4.58;64.99;101204.56;8261574;28;20129;-84
2021/12/06 13:41:29;;;;;;;8.05;5.38;;;6.40;58.90;;;4.62;65.06;101212.22;8261275;28;20125;-82
2021/12/06 13:45:59;;;;;;;9.70;5.93;;;6.40;58.90;;;4.60;65.30;101205.38;8275786;23;20144;-87
2021/12/06 13:50:27;;;;;;;9.32;5.20;;;6.40;58.90;;;4.61;65.20;101214.84;8273651;28;20414;-86
2021/12/06 13:54:50;;;;;;;8.35;4.93;;;6.40;58.90;;;4.65;65.08;101221.66;8280713;28;20137;-86
2021/12/06 13:59:19;;;;;;;9.35;5.40;;;6.40;58.90;;;4.66;65.30;101224.19;8265705;28;20160;-86
2021/12/06 14:03:42;;;;;;;8.23;5.43;;;6.40;58.90;;;4.64;65.21;101200.13;8263164;28;20042;-85
2021/12/06 14:08:05;;;;;;;8.90;6.03;;;6.50;58.90;;;4.72;65.02;101220.63;8273622;28;20110;-86
2021/12/06 14:12:31;;;;;;;8.15;5.63;;;6.50;58.90;;;4.68;65.12;101224.19;8283173;28;20133;-87
2021/12/06 14:16:53;;;;;;;8.00;5.20;;;6.50;58.80;;;4.62;65.15;101221.72;8280717;28;20046;-86
2021/12/06 14:21:18;;;;;;;6.22;4.65;;;6.50;58.80;;;4.65;65.06;101221.66;8269523;28;20132;-87
2021/12/06 14:25:48;;;;;;;8.00;4.78;;;6.40;58.70;;;4.65;65.23;101229.41;8284156;28;20232;-87
2021/12/06 14:30:17;;;;;;;7.10;4.95;;;6.40;58.70;;;4.65;65.27;101229.41;8277100;28;20157;-87
2021/12/06 14:34:42;;;;;;;8.15;5.20;;;6.40;58.80;;;4.58;65.39;101215.75;8283580;28;20140;-87
2021/12/06 14:39:18;;;;;;;6.93;4.97;;;6.40;58.80;;;4.56;64.96;101216.69;8276307;28;20136;-86
2021/12/06 14:43:39;;;;;;;7.78;5.32;;;6.30;58.70;;;4.59;65.02;101226.94;8281103;28;20044;-85
2021/12/06 14:48:09;;;;;;;8.90;4.93;;;6.40;58.70;;;4.51;65.24;101224.56;8261990;28;20360;-85
2021/12/06 14:52:33;;;;;;;7.97;5.07;;;6.30;58.60;;;4.52;65.03;101230.56;8281140;28;20137;-87
2021/12/06 14:57:00;;;;;;;7.90;4.90;;;6.30;58.60;;;4.48;65.10;101222.00;8278659;28;20041;-86
2021/12/06 15:01:32;;;;;;;6.85;4.88;;;6.30;58.60;;;4.39;64.94;101223.06;8280813;28;20153;-87
2021/12/06 15:05:55;;;;;;;8.40;5.75;;;6.20;58.60;;;4.39;65.22;101224.81;8269526;28;20137;-87
2021/12/06 15:10:17;;;;;;;6.75;4.70;;;6.20;59.00;;;4.40;64.78;101229.97;8265950;28;20148;-87
2021/12/06 15:14:39;;;;;;;8.82;4.88;;;6.20;58.60;;;4.37;65.02;101235.16;8281669;28;20141;-88
2021/12/06 15:19:01;;;;;;;7.32;5.15;;;6.10;58.60;;;4.32;65.12;101236.16;8267980;28;20144;-86
2021/12/06 15:23:30;;;;;;;7.65;5.13;;;6.10;58.60;;;4.31;65.07;101240.47;8247178;28;20045;-87
2021/12/06 15:27:52;;;;;;;7.05;4.60;;;6.10;58.60;;;4.28;64.76;101245.72;8266394;28;20038;-87
2021/12/06 15:32:16;;;;;;;5.93;4.03;;;6.10;58.60;;;4.31;65.01;101250.81;8268611;28;20056;-85
2021/12/06 15:36:37;;;;;;;7.68;5.22;;;6.10;58.60;;;4.25;65.18;101243.19;8267676;28;20060;-86
2021/12/06 15:41:11;;;;;;;9.73;5.20;;;6.00;58.60;;;4.21;64.85;101246.72;8258764;28;20042;-85
2021/12/06 15:45:35;;;;;;;7.72;5.03;;;6.00;58.60;;;4.14;64.96;101227.91;8259252;28;20507;-87
2021/12/06 15:50:02;;;;;;;8.23;5.20;;;6.00;58.60;;;4.23;64.70;101250.13;8264141;28;20042;-87
2021/12/06 15:54:30;;;;;;;8.40;5.15;;;6.00;58.70;;;4.18;65.03;101244.19;8231379;28;20061;-85
2021/12/06 15:58:59;;;;;;;7.80;4.78;;;6.00;58.70;;;4.26;65.12;101251.81;8272957;28;20052;-85
2021/12/06 16:03:29;;;;;;;7.78;5.18;;;5.90;58.80;;;4.20;64.76;101232.09;8248444;28;20284;-85
2021/12/06 16:07:59;;;;;;;7.53;5.45;;;6.00;58.90;;;4.15;65.13;101221.84;8254991;28;20051;-86
2021/12/06 16:12:22;;;;;;;10.15;6.05;;;6.20;58.80;;;4.18;64.95;101241.63;8243700;28;20041;-85
2021/12/06 16:16:45;;;;;;;8.63;5.78;;;6.00;58.60;;;4.13;65.13;101236.56;8242977;28;20034;-85
2021/12/06 16:21:21;;;;;;;7.10;5.32;;;5.90;58.50;;;4.09;65.18;101226.31;8245109;28;20044;-85
2021/12/06 16:25:59;;;;;;;7.60;5.18;;;5.90;58.60;;;4.06;65.01;101224.63;8255974;28;20058;-84
2021/12/06 16:30:21;;;;;;;7.88;5.63;;;5.90;58.60;;;4.06;64.75;101226.38;8261920;28;20052;-82
2021/12/06 16:34:46;;;;;;;7.88;5.70;;;5.80;58.60;;;3.94;64.93;101215.41;8265971;28;20052;-83
2021/12/06 16:39:07;;;;;;;8.48;5.55;;;5.80;58.60;;;4.03;64.97;101235.03;8260842;28;20042;-83
2021/12/06 16:43:33;;;;;;;8.45;5.47;;;5.80;58.50;;;3.97;65.12;101224.84;8282497;28;20048;-83
2021/12/06 16:48:00;;;;;;;;;;;5.70;58.50;;;3.93;64.93;101228.34;8268647;28;20064;-83
2021/12/06 16:52:38;;;;;;;5.45;3.88;;;5.70;58.50;;;3.84;65.17;101213.88;8255926;28;19917;-83
2021/12/06 16:57:07;;;;;;;6.95;5.00;;;5.70;58.50;;;3.83;65.01;101222.50;8258318;28;20049;-83
2021/12/06 17:01:29;;;;;;;9.00;4.85;;;5.60;58.60;;;3.87;64.67;101234.47;8267778;28;20502;-84
2021/12/06 17:05:56;;;;;;;6.35;4.55;;;5.60;58.60;;;3.82;65.11;101228.56;8252120;28;20097;-84
2021/12/06 17:10:18;;;;;;;6.97;4.40;;;5.60;58.70;;;3.84;64.82;101237.13;8265956;28;20049;-85
2021/12/06 17:14:40;;;;;;;6.50;4.85;;;5.60;58.60;;;3.83;64.89;101226.81;8262173;28;20052;-82
2021/12/06 17:19:28;;;;;;;6.35;4.78;;;5.50;58.60;;;3.76;65.22;101216.59;8246127;28;20569;-83
2021/12/06 17:23:52;;;;;;;7.47;4.53;;;5.50;58.70;;;3.75;65.00;101214.91;8240750;28;20042;-83
2021/12/06 17:28:30;;;;;;;7.10;4.50;;;5.50;58.70;;;3.69;65.05;101203.84;8261896;28;20053;-84
2021/12/06 17:33:01;;;;;;;8.15;4.68;;;5.50;58.70;;;3.73;65.00;101213.25;8258194;28;20041;-83
2021/12/06 17:37:23;;;;;;;7.45;4.95;;;5.50;58.60;;;3.72;65.13;101211.53;8267793;28;20053;-83
2021/12/06 17:41:48;;;;;;;9.10;5.68;;;5.50;58.70;;;3.71;65.06;101212.41;8250724;28;20046;-85
2021/12/06 17:46:09;;;;;;;8.53;5.53;;;5.50;58.70;;;3.69;64.98;101215.00;8242471;28;20050;-84
2021/12/06 17:50:48;;;;;;;7.40;4.30;;;5.50;58.70;;;3.76;65.21;101215.75;8244563;28;20054;-85
2021/12/06 17:55:16;;;;;;;7.28;5.65;;;5.50;58.70;;;3.37;64.99;101147.63;8243416;28;20056;-85
2021/12/06 17:59:50;;;;;;;7.65;5.22;;;5.50;58.90;;;3.29;64.96;101129.69;8250138;28;20060;-85
2021/12/06 18:04:29;;;;;;;8.05;5.25;;;5.50;58.80;;;3.49;65.12;101163.75;8252678;28;20049;-86
2021/12/06 18:08:51;;;;;;;6.30;4.47;;;5.50;58.80;;;3.46;65.01;101150.91;8229940;28;20054;-84
2021/12/06 18:13:13;;;;;;;8.23;4.78;;;5.50;58.80;;;3.71;64.88;101192.59;8259400;28;20045;-84
2021/12/06 18:17:36;;;;;;;7.93;5.10;;;5.50;58.70;;;3.73;64.76;101187.41;8250182;28;20326;-84
2021/12/06 18:21:58;;;;;;;8.98;5.78;;;5.50;58.70;;;3.77;65.02;101192.47;8255211;28;20046;-84
2021/12/06 18:26:20;;;;;;;9.02;5.40;;;5.50;58.70;;;3.73;64.78;101183.09;8258138;28;20052;-83
2021/12/06 18:30:44;;;;;;;10.18;5.70;;;5.50;58.70;;;3.69;65.22;101173.69;8235289;28;20049;-84
2021/12/06 18:35:07;;;;;;;8.15;5.78;;;5.50;58.70;;;3.73;65.24;101183.09;8262205;28;20045;-83
2021/12/06 18:39:37;;;;;;;7.07;5.00;;;5.50;58.80;;;3.70;64.95;101179.69;8262479;28;20058;-84
2021/12/06 18:48:21;;;;;;;13.05;8.15;;;5.50;58.80;;;3.75;64.97;101171.00;8250986;28;20054;-85
2021/12/06 18:52:47;;;;;;;13.02;8.23;;;5.50;58.80;;;3.75;65.03;101164.97;8260774;28;20447;-86
2021/12/06 18:57:10;;;;;;;8.52;5.43;;;5.50;58.80;;;3.28;64.96;101076.41;8267333;28;20042;-84
2021/12/06 19:01:34;;;;;;;7.18;5.22;;;5.40;58.70;;;3.69;65.03;101153.03;8240356;28;20057;-85
2021/12/06 19:05:56;;;;;;;7.22;5.40;;;5.50;58.70;;;3.68;64.90;101147.91;8261164;28;20044;-84